Time;durP1;ratioP1;P1;durP2;ratioP2;P2;SDS_P1;SDS_P2;PMS_P1;PMS_P2;Temp;Humidity;BMP_temperature;BMP_pressure;BME280_temperature;BME280_humidity;BME280_pressure;Samples;Min_cycle;Max_cycle;Signal;HPM_P1;HPM_P2
2024/01/17 00:01:26;;;;;;;9.27;7.57;;;;;;;-0.63;100.00;100099.19;6154277;28;20225;-69
2024/01/17 00:04:50;;;;;;;11.30;7.80;;;;;;;-0.58;100.00;100086.53;6166590;28;20241;-68
2024/01/17 00:08:11;;;;;;;9.50;6.90;;;;;;;-0.65;100.00;100089.63;6167593;28;20249;-68
2024/01/17 00:11:32;;;;;;;9.43;7.87;;;;;;;-0.66;100.00;100082.59;6159471;28;20249;-69
2024/01/17 00:14:54;;;;;;;8.50;6.33;;;;;;;-0.57;100.00;100076.81;6169704;28;20627;-69
2024/01/17 00:18:16;;;;;;;8.23;7.43;;;;;;;-0.64;100.00;100086.00;6159999;28;20273;-68
2024/01/17 00:21:37;;;;;;;10.50;9.10;;;;;;;-0.64;100.00;100071.00;6163916;28;20237;-69
2024/01/17 00:24:58;;;;;;;6.60;6.00;;;;;;;-0.61;100.00;100068.19;6166117;28;20233;-67
2024/01/17 00:28:19;;;;;;;6.80;6.10;;;;;;;-0.60;100.00;100071.66;6163727;28;20553;-68
2024/01/17 00:31:40;;;;;;;5.47;5.07;;;;;;;-0.57;100.00;100056.50;6156804;28;20230;-69
2024/01/17 00:35:02;;;;;;;7.10;6.50;;;;;;;-0.65;100.00;100050.78;6162103;28;20234;-68
2024/01/17 00:38:24;;;;;;;7.53;6.97;;;;;;;-0.64;100.00;100043.69;6167877;28;20586;-68
2024/01/17 00:41:46;;;;;;;7.03;6.33;;;;;;;-0.72;100.00;100040.63;6164978;28;20237;-68
2024/01/17 00:45:07;;;;;;;7.47;6.30;;;;;;;-0.76;100.00;100026.72;6166519;28;20281;-69
2024/01/17 00:48:28;;;;;;;7.63;6.90;;;;;;;-0.84;100.00;100039.53;6178906;28;20233;-68
2024/01/17 00:51:50;;;;;;;8.97;6.27;;;;;;;-0.90;100.00;100027.47;6168671;28;20241;-69
2024/01/17 00:55:11;;;;;;;7.97;7.17;;;;;;;-0.84;100.00;100010.44;6160361;28;20226;-68
2024/01/17 00:58:32;;;;;;;7.20;6.50;;;;;;;-0.75;100.00;100012.53;6166467;28;20234;-69
2024/01/17 01:01:53;;;;;;;9.43;7.00;;;;;;;-0.81;100.00;100010.25;6160745;28;20242;-69
2024/01/17 01:05:15;;;;;;;8.67;6.33;;;;;;;-0.81;100.00;100015.53;6161823;28;20468;-68
2024/01/17 01:08:37;;;;;;;7.43;5.70;;;;;;;-0.75;100.00;100012.53;6168415;28;21144;-68
2024/01/17 01:11:58;;;;;;;10.07;6.50;;;;;;;-0.69;100.00;99999.00;6142470;28;20667;-69
2024/01/17 01:15:19;;;;;;;8.03;6.03;;;;;;;-0.58;100.00;99999.22;6138706;28;21952;-69
2024/01/17 01:18:40;;;;;;;8.43;6.07;;;;;;;-0.58;100.00;99990.41;6170283;28;20237;-70
2024/01/17 01:22:01;;;;;;;7.20;6.43;;;;;;;-0.61;100.00;100002.03;6161201;28;20238;-69
2024/01/17 01:25:24;;;;;;;6.57;5.53;;;;;;;-0.55;100.00;99985.81;6165847;28;20261;-69
2024/01/17 01:28:45;;;;;;;7.33;6.60;;;;;;;-0.62;100.00;99992.38;6172011;28;20238;-69
2024/01/17 01:32:06;;;;;;;11.27;6.67;;;;;;;-0.59;100.00;99976.34;6153692;28;20254;-68
2024/01/17 01:35:27;;;;;;;8.13;7.37;;;;;;;-0.61;100.00;99985.31;6169199;28;20813;-68
2024/01/17 01:38:47;;;;;;;6.17;5.70;;;;;;;-0.59;100.00;99992.22;6176681;28;20317;-69
2024/01/17 01:42:10;;;;;;;7.10;6.47;;;;;;;-0.44;100.00;99972.78;6168711;28;20284;-69
2024/01/17 01:45:31;;;;;;;5.40;4.87;;;;;;;-0.52;100.00;99984.78;6163174;28;22000;-68
2024/01/17 01:48:53;;;;;;;6.93;6.33;;;;;;;-0.57;100.00;99969.16;6166921;28;20233;-68
2024/01/17 01:52:14;;;;;;;10.73;6.90;;;;;;;-0.48;100.00;99965.97;6158977;28;20535;-69
2024/01/17 01:55:35;;;;;;;11.00;7.37;;;;;;;-0.60;100.00;99977.28;6165304;28;20233;-69
2024/01/17 01:58:59;;;;;;;6.20;5.70;;;;;;;-0.53;100.00;99962.75;6169642;28;20237;-68
2024/01/17 02:02:20;;;;;;;8.07;7.17;;;;;;;-0.56;100.00;99962.91;6161056;28;20685;-68
2024/01/17 02:05:42;;;;;;;8.10;6.00;;;;;;;-0.48;100.00;99954.56;6166789;28;20241;-68
2024/01/17 02:09:04;;;;;;;8.87;6.73;;;;;;;-0.53;100.00;99946.88;6174889;28;20233;-69
2024/01/17 02:12:24;;;;;;;6.63;5.97;;;;;;;-0.47;100.00;99943.00;6160441;28;20230;-69
2024/01/17 02:15:47;;;;;;;7.97;7.20;;;;;;;-0.52;100.00;99937.97;6160433;28;20516;-69
2024/01/17 02:19:10;;;;;;;7.60;7.03;;;;;;;-0.51;100.00;99937.06;6173484;28;20600;-68
2024/01/17 02:22:31;;;;;;;6.60;5.20;;;;;;;-0.49;100.00;99932.53;6160677;28;20528;-69
2024/01/17 02:25:54;;;;;;;7.07;6.30;;;;;;;-0.49;100.00;99935.16;6162550;28;20229;-69
2024/01/17 02:29:15;;;;;;;6.97;6.33;;;;;;;-0.39;100.00;99924.88;6172981;28;20619;-68
2024/01/17 02:32:36;;;;;;;8.53;7.17;;;;;;;-0.46;100.00;99921.72;6154940;28;20231;-68
2024/01/17 02:35:57;;;;;;;6.07;5.47;;;;;;;-0.47;100.00;99917.41;6167046;28;20229;-67
2024/01/17 02:39:18;;;;;;;6.33;5.73;;;;;;;-0.51;100.00;99907.94;6169070;28;20234;-69
2024/01/17 02:42:41;;;;;;;9.97;7.57;;;;;;;-0.47;100.00;99903.31;6159566;28;20230;-68
2024/01/17 02:46:02;;;;;;;9.33;7.10;;;;;;;-0.49;100.00;99900.75;6160708;28;20237;-68
2024/01/17 02:49:24;;;;;;;6.67;6.00;;;;;;;-0.47;100.00;99893.56;6169317;28;20233;-68
2024/01/17 02:52:46;;;;;;;6.13;5.57;;;;;;;-0.43;100.00;99887.16;6145229;28;21412;-69
2024/01/17 02:56:06;;;;;;;7.57;4.53;;;;;;;-0.41;100.00;99884.41;6165770;28;20237;-69
2024/01/17 02:59:29;;;;;;;6.23;5.70;;;;;;;-0.50;100.00;99884.97;6172846;28;20547;-69
2024/01/17 03:02:50;;;;;;;10.80;6.70;;;;;;;-0.50;100.00;99880.50;6158714;28;20233;-68
2024/01/17 03:06:11;;;;;;;5.93;5.40;;;;;;;-0.47;100.00;99867.13;6169020;28;20230;-68
2024/01/17 03:09:32;;;;;;;9.53;6.10;;;;;;;-0.58;100.00;99868.69;6167640;28;20230;-69
2024/01/17 03:12:53;;;;;;;6.73;5.37;;;;;;;-0.67;100.00;99875.41;6165001;28;20538;-69
2024/01/17 03:16:19;;;;;;;10.67;6.77;;;;;;;-0.63;100.00;99861.03;6160718;28;20233;-69
2024/01/17 03:19:40;;;;;;;9.37;6.83;;;;;;;-0.83;100.00;99858.69;6170859;28;20550;-69
2024/01/17 03:23:01;;;;;;;8.03;7.33;;;;;;;-0.90;100.00;99849.44;6163295;28;20321;-69
2024/01/17 03:26:23;;;;;;;11.83;6.93;;;;;;;-0.89;100.00;99829.97;6165943;28;20233;-69
2024/01/17 03:29:44;;;;;;;7.70;7.00;;;;;;;-0.94;100.00;99824.94;6168622;28;20230;-69
2024/01/17 03:33:06;;;;;;;9.20;6.57;;;;;;;-1.08;100.00;99832.84;6165929;28;20237;-69
2024/01/17 03:36:27;;;;;;;7.43;5.40;;;;;;;-1.11;100.00;99829.53;6161346;28;20226;-69
2024/01/17 03:39:48;;;;;;;6.40;5.80;;;;;;;-1.14;100.00;99812.06;6171059;28;20519;-68
2024/01/17 03:43:09;;;;;;;7.77;6.80;;;;;;;-1.14;100.00;99811.19;6169677;28;20242;-68
2024/01/17 03:46:30;;;;;;;8.13;6.30;;;;;;;-1.16;100.00;99800.72;6160118;28;20364;-69
2024/01/17 03:49:52;;;;;;;11.30;9.83;;;;;;;-1.14;100.00;99806.75;6160084;28;20325;-69
2024/01/17 03:53:13;;;;;;;10.40;7.93;;;;;;;-1.20;100.00;99800.97;6165871;28;20249;-69
2024/01/17 03:56:34;;;;;;;8.80;7.87;;;;;;;-1.12;100.00;99802.25;6160161;28;20230;-69
2024/01/17 03:59:55;;;;;;;8.30;7.47;;;;;;;-1.32;100.00;99789.34;6165241;28;20237;-69
2024/01/17 04:03:16;;;;;;;8.67;7.77;;;;;;;-1.18;100.00;99781.44;6164586;28;20242;-69
2024/01/17 04:06:38;;;;;;;7.83;7.03;;;;;;;-1.19;100.00;99773.63;6169356;28;20229;-68
2024/01/17 04:09:59;;;;;;;7.23;6.53;;;;;;;-1.25;100.00;99766.06;6173579;28;20229;-70
2024/01/17 04:13:20;;;;;;;9.33;7.60;;;;;;;-1.40;100.00;99749.28;6171458;28;20229;-69
2024/01/17 04:16:41;;;;;;;7.87;7.23;;;;;;;-1.46;100.00;99738.22;6158175;28;20233;-69
2024/01/17 04:20:02;;;;;;;8.23;7.40;;;;;;;-1.37;100.00;99729.75;6166263;28;20317;-68
2024/01/17 04:23:25;;;;;;;7.63;6.80;;;;;;;-1.45;100.00;99735.50;6167217;28;20234;-69
2024/01/17 04:26:46;;;;;;;5.80;5.30;;;;;;;-1.44;100.00;99726.59;6162068;28;20257;-69
2024/01/17 04:30:11;;;;;;;7.93;6.17;;;;;;;-1.47;100.00;99712.72;6162130;28;20624;-69
2024/01/17 04:33:32;;;;;;;10.17;6.80;;;;;;;-1.53;100.00;99713.09;6165315;28;20230;-69
2024/01/17 04:36:53;;;;;;;8.40;7.70;;;;;;;-1.49;100.00;99706.69;6165810;28;20221;-69
2024/01/17 04:40:16;;;;;;;8.17;7.37;;;;;;;-1.42;100.00;99700.13;6166758;28;20234;-68
2024/01/17 04:43:37;;;;;;;8.37;7.57;;;;;;;-1.55;100.00;99702.63;6177827;28;20230;-69
2024/01/17 04:46:58;;;;;;;9.20;7.57;;;;;;;-1.30;100.00;99699.38;6145804;28;20229;-68
2024/01/17 04:50:19;;;;;;;10.83;8.80;;;;;;;-1.36;100.00;99687.41;6166347;28;20619;-68
2024/01/17 04:53:41;;;;;;;8.00;7.20;;;;;;;-1.45;100.00;99681.78;6176658;28;20253;-69
2024/01/17 04:57:04;;;;;;;10.07;6.63;;;;;;;-1.29;100.00;99688.72;6169400;28;20615;-68
2024/01/17 05:00:25;;;;;;;6.23;5.73;;;;;;;-1.32;100.00;99682.78;6160956;28;20241;-69
2024/01/17 05:03:46;;;;;;;8.27;6.43;;;;;;;-1.52;100.00;99681.28;6159539;28;20269;-68
2024/01/17 05:07:08;;;;;;;13.07;7.27;;;;;;;-1.57;100.00;99666.66;6162784;28;20233;-69
2024/01/17 05:10:30;;;;;;;6.50;5.90;;;;;;;-1.49;100.00;99646.78;6147242;28;20226;-67
2024/01/17 05:13:52;;;;;;;8.30;7.47;;;;;;;-1.56;100.00;99641.97;6161653;28;20610;-70
2024/01/17 05:17:13;;;;;;;8.70;7.23;;;;;;;-1.41;100.00;99636.59;6146173;28;20820;-68
2024/01/17 05:20:34;;;;;;;6.10;5.50;;;;;;;-1.44;100.00;99623.56;6163106;28;20240;-69
2024/01/17 05:23:55;;;;;;;8.07;7.37;;;;;;;-1.53;100.00;99615.34;6171948;28;20654;-68
2024/01/17 05:27:16;;;;;;;10.23;6.37;;;;;;;-1.48;100.00;99606.19;6161463;28;20603;-69
2024/01/17 05:30:38;;;;;;;11.93;7.03;;;;;;;-1.46;100.00;99614.88;6160126;28;20348;-69
2024/01/17 05:33:59;;;;;;;11.77;7.57;;;;;;;-1.45;100.00;99613.94;6156261;28;20226;-69
2024/01/17 05:37:21;;;;;;;6.70;4.70;;;;;;;-1.48;100.00;99610.66;6160280;28;20607;-68
2024/01/17 05:40:42;;;;;;;7.07;6.47;;;;;;;-1.40;100.00;99609.25;6164870;28;20250;-70
2024/01/17 05:44:03;;;;;;;7.13;6.43;;;;;;;-1.31;100.00;99606.03;6166430;28;20589;-69
2024/01/17 05:47:26;;;;;;;6.63;5.77;;;;;;;-1.22;100.00;99601.97;6156492;28;20321;-68
2024/01/17 05:50:46;;;;;;;6.20;5.60;;;;;;;-1.30;100.00;99597.16;6161619;28;20233;-69
2024/01/17 05:54:07;;;;;;;7.63;6.77;;;;;;;-1.18;100.00;99587.63;6167808;28;20538;-69
2024/01/17 05:57:28;;;;;;;13.97;7.57;;;;;;;-1.16;100.00;99591.03;6163954;28;20539;-69
2024/01/17 06:00:49;;;;;;;8.43;6.67;;;;;;;-1.11;100.00;99591.59;6153254;28;20238;-68
2024/01/17 06:04:11;;;;;;;6.87;6.27;;;;;;;-1.13;100.00;99581.13;6169062;28;20501;-69
2024/01/17 06:07:32;;;;;;;10.97;7.77;;;;;;;-1.08;100.00;99580.81;6168359;28;20234;-70
2024/01/17 06:10:54;;;;;;;7.80;7.10;;;;;;;-1.17;100.00;99561.09;6169492;28;20614;-70
2024/01/17 06:14:15;;;;;;;6.63;6.00;;;;;;;-1.17;100.00;99566.38;6181157;28;20230;-69
2024/01/17 06:17:37;;;;;;;6.70;6.03;;;;;;;-1.06;100.00;99549.84;6172276;28;20226;-70
2024/01/17 06:20:59;;;;;;;7.73;5.80;;;;;;;-1.03;100.00;99542.59;6174518;28;20249;-70
2024/01/17 06:24:20;;;;;;;9.30;7.23;;;;;;;-1.03;100.00;99547.88;6162161;28;20237;-69
2024/01/17 06:27:41;;;;;;;9.73;5.97;;;;;;;-0.95;100.00;99539.44;6157489;28;20241;-70
2024/01/17 06:31:03;;;;;;;5.97;5.50;;;;;;;-0.94;100.00;99535.88;6178474;28;20249;-69
2024/01/17 06:34:24;;;;;;;7.07;5.87;;;;;;;-1.01;100.00;99521.31;6181479;28;20225;-69
2024/01/17 06:37:47;;;;;;;6.67;6.10;;;;;;;-1.06;100.00;99520.75;6176881;28;20238;-69
2024/01/17 06:41:08;;;;;;;7.17;5.00;;;;;;;-0.88;100.00;99519.59;6177972;28;20230;-67
2024/01/17 06:44:30;;;;;;;8.53;5.97;;;;;;;-1.04;100.00;99511.78;6174494;28;20234;-69
2024/01/17 06:47:51;;;;;;;5.87;4.93;;;;;;;-1.02;100.00;99515.19;6165167;28;20246;-69
2024/01/17 06:51:12;;;;;;;4.87;4.37;;;;;;;-1.06;100.00;99515.47;6159995;28;20233;-67
2024/01/17 06:54:34;;;;;;;5.23;4.83;;;;;;;-1.07;100.00;99513.78;6174766;28;20229;-69
2024/01/17 06:57:55;;;;;;;7.23;6.50;;;;;;;-1.04;100.00;99493.28;6164499;28;20230;-69
2024/01/17 07:01:16;;;;;;;9.73;6.37;;;;;;;-1.10;100.00;99493.69;6156034;28;20234;-70
2024/01/17 07:04:40;;;;;;;6.17;4.53;;;;;;;-1.09;100.00;99492.75;6169007;28;20249;-69
2024/01/17 07:08:01;;;;;;;5.93;5.33;;;;;;;-1.06;100.00;99500.47;6148773;28;20233;-69
2024/01/17 07:11:24;;;;;;;6.83;6.17;;;;;;;-1.08;100.00;99490.94;6164372;28;20233;-69
2024/01/17 07:14:47;;;;;;;7.30;6.13;;;;;;;-1.10;100.00;99492.81;6171854;28;20237;-68
2024/01/17 07:18:08;;;;;;;5.20;4.80;;;;;;;-1.10;100.00;99480.47;6166395;28;20686;-69
2024/01/17 07:21:29;;;;;;;5.23;4.40;;;;;;;-1.00;100.00;99488.66;6164195;28;20600;-70
2024/01/17 07:24:50;;;;;;;7.13;6.53;;;;;;;-1.04;100.00;99476.56;6167636;28;20229;-70
2024/01/17 07:28:13;;;;;;;7.07;4.60;;;;;;;-1.04;100.00;99464.19;6170795;28;20229;-68
2024/01/17 07:31:34;;;;;;;4.93;4.50;;;;;;;-1.05;100.00;99459.03;6159625;28;20246;-70
2024/01/17 07:34:55;;;;;;;7.93;4.50;;;;;;;-0.89;100.00;99451.78;6173769;28;20238;-68
2024/01/17 07:38:16;;;;;;;4.23;3.83;;;;;;;-0.92;100.00;99471.34;6147163;28;20264;-68
2024/01/17 07:41:36;;;;;;;5.50;4.90;;;;;;;-0.90;100.00;99461.50;6163457;28;20229;-68
2024/01/17 07:45:00;;;;;;;4.40;3.50;;;;;;;-0.84;100.00;99444.41;6150769;28;20243;-69
2024/01/17 07:48:21;;;;;;;4.50;3.83;;;;;;;-0.98;100.00;99440.00;6170974;28;20316;-68
2024/01/17 07:51:42;;;;;;;4.90;4.37;;;;;;;-0.98;100.00;99428.59;6162182;28;20237;-69
2024/01/17 07:55:03;;;;;;;6.50;3.67;;;;;;;-0.89;100.00;99418.25;6168769;28;20234;-68
2024/01/17 07:58:24;;;;;;;6.57;4.43;;;;;;;-0.99;100.00;99425.09;6172877;28;20234;-70
2024/01/17 08:01:48;;;;;;;4.17;3.87;;;;;;;-1.02;100.00;99427.94;6140381;28;20635;-69
2024/01/17 08:05:09;;;;;;;10.03;3.97;;;;;;;-1.02;100.00;99420.00;6164546;28;20368;-68
2024/01/17 08:08:30;;;;;;;4.30;3.90;;;;;;;-0.94;100.00;99411.59;6173006;28;20253;-67
2024/01/17 08:11:52;;;;;;;6.20;3.40;;;;;;;-0.93;100.00;99407.97;6164625;28;20237;-69
2024/01/17 08:15:13;;;;;;;4.30;3.90;;;;;;;-0.95;100.00;99400.16;6171769;28;20836;-68
2024/01/17 08:18:35;;;;;;;4.00;3.53;;;;;;;-0.92;100.00;99392.00;6167850;28;20556;-67
2024/01/17 08:21:57;;;;;;;6.20;3.93;;;;;;;-0.92;100.00;99385.88;6160706;28;20234;-69
2024/01/17 08:25:18;;;;;;;6.10;4.23;;;;;;;-0.84;100.00;99370.34;6148213;28;20246;-69
2024/01/17 08:28:39;;;;;;;3.93;3.63;;;;;;;-0.82;100.00;99376.38;6172435;28;23001;-68
2024/01/17 08:32:00;;;;;;;8.40;4.47;;;;;;;-0.79;100.00;99362.13;6141107;28;20234;-68
2024/01/17 08:35:22;;;;;;;3.47;3.07;;;;;;;-0.78;100.00;99366.44;6164338;28;20248;-68
2024/01/17 08:38:43;;;;;;;6.07;4.60;;;;;;;-0.75;100.00;99364.44;6175982;28;20237;-67
2024/01/17 08:42:04;;;;;;;3.40;3.10;;;;;;;-0.76;100.00;99354.81;6160593;28;20225;-68
2024/01/17 08:45:25;;;;;;;3.30;3.00;;;;;;;-0.69;100.00;99357.91;6170009;28;20530;-67
2024/01/17 08:48:46;;;;;;;4.13;2.90;;;;;;;-0.63;100.00;99344.25;6173815;28;20238;-68
2024/01/17 08:52:08;;;;;;;3.20;2.90;;;;;;;-0.52;100.00;99344.38;6150692;28;20245;-68
2024/01/17 08:55:29;;;;;;;5.57;2.93;;;;;;;-0.61;100.00;99331.78;6159359;28;21112;-68
2024/01/17 08:58:50;;;;;;;2.77;2.57;;;;;;;-0.58;100.00;99344.78;6169987;28;20230;-69
2024/01/17 09:02:11;;;;;;;5.07;4.20;;;;;;;-0.52;100.00;99339.09;6159089;28;20241;-69
2024/01/17 09:05:32;;;;;;;9.20;4.23;;;;;;;-0.45;100.00;99343.00;6163382;28;20786;-69
2024/01/17 09:08:54;;;;;;;5.80;3.97;;;;;;;-0.48;100.00;99338.75;6182312;28;20225;-69
2024/01/17 09:12:17;;;;;;;3.97;3.50;;;;;;;-0.39;100.00;99331.97;6170667;28;20594;-68
2024/01/17 09:15:37;;;;;;;4.30;4.00;;;;;;;-0.37;100.00;99333.56;6175155;28;20785;-69
2024/01/17 09:18:58;;;;;;;4.43;3.53;;;;;;;-0.26;100.00;99336.34;6177396;28;20226;-69
2024/01/17 09:22:19;;;;;;;4.83;3.17;;;;;;;-0.26;100.00;99331.03;6172106;28;20248;-69
2024/01/17 09:25:42;;;;;;;6.90;4.13;;;;;;;-0.20;100.00;99329.75;6162869;28;20238;-68
2024/01/17 09:29:03;;;;;;;6.57;3.30;;;;;;;-0.25;100.00;99327.44;6180848;28;20226;-69
2024/01/17 09:32:24;;;;;;;7.23;4.00;;;;;;;-0.22;100.00;99342.25;6174692;28;20233;-68
2024/01/17 09:35:45;;;;;;;5.90;4.57;;;;;;;-0.25;100.00;99330.06;6178043;28;20237;-68
2024/01/17 09:39:06;;;;;;;4.17;3.23;;;;;;;-0.10;100.00;99326.38;6183840;28;20275;-69
2024/01/17 09:42:29;;;;;;;4.70;3.57;;;;;;;-0.16;100.00;99331.22;6175654;28;20224;-68
2024/01/17 09:45:50;;;;;;;3.07;2.87;;;;;;;-0.28;100.00;99317.06;6177692;28;20238;-68
2024/01/17 09:49:12;;;;;;;6.90;3.97;;;;;;;-0.05;100.00;99321.59;6181558;28;20236;-69
2024/01/17 09:52:34;;;;;;;3.57;2.87;;;;;;;-0.28;100.00;99338.25;6186710;28;20316;-69
2024/01/17 09:55:58;;;;;;;2.87;2.57;;;;;;;-0.26;100.00;99323.09;6179286;28;20600;-68
2024/01/17 09:59:27;;;;;;;10.77;3.47;;;;;;;-0.15;100.00;99315.22;6181932;28;20238;-68
2024/01/17 10:02:50;;;;;;;3.70;3.40;;;;;;;-0.12;100.00;99309.72;6186128;28;20233;-68
2024/01/17 10:06:15;;;;;;;4.47;4.03;;;;;;;0.06;100.00;99314.69;6170444;28;20238;-68
2024/01/17 10:09:35;;;;;;;3.47;3.07;;;;;;;0.02;100.00;99305.28;6187155;28;20337;-67
2024/01/17 10:12:56;;;;;;;5.87;4.67;;;;;;;0.09;100.00;99295.91;6172903;28;20250;-69
2024/01/17 10:16:19;;;;;;;4.47;4.07;;;;;;;-0.18;100.00;99302.22;6179165;28;20319;-69
2024/01/17 10:19:41;;;;;;;6.17;4.80;;;;;;;0.12;100.00;99293.06;6191096;28;20260;-69
2024/01/17 10:23:03;;;;;;;8.37;5.30;;;;;;;0.15;100.00;99283.09;6177504;28;20260;-68
2024/01/17 10:26:25;;;;;;;4.63;4.23;;;;;;;0.13;100.00;99295.59;6181317;28;20353;-68
2024/01/17 10:29:46;;;;;;;3.53;3.03;;;;;;;0.13;100.00;99287.66;6191407;28;20230;-68
2024/01/17 10:33:09;;;;;;;4.60;3.43;;;;;;;0.00;100.00;99276.25;6178068;28;20714;-68
2024/01/17 10:36:30;;;;;;;4.00;3.57;;;;;;;0.22;100.00;99259.66;6182257;28;20233;-69
2024/01/17 10:40:09;;;;;;;4.60;4.20;;;;;;;0.13;100.00;99262.94;6180179;28;20230;-68
2024/01/17 10:43:30;;;;;;;9.83;4.83;;;;;;;0.14;100.00;99249.63;6176840;28;20233;-69
2024/01/17 10:46:51;;;;;;;5.57;4.97;;;;;;;0.23;100.00;99245.47;6182946;28;20230;-68
2024/01/17 10:50:14;;;;;;;6.73;3.03;;;;;;;0.14;100.00;99241.69;6180916;28;20351;-68
2024/01/17 10:53:35;;;;;;;7.37;4.53;;;;;;;0.76;100.00;99234.38;6182199;28;20233;-69
2024/01/17 10:56:56;;;;;;;4.57;3.73;;;;;;;0.35;100.00;99231.31;6175591;28;20242;-69
2024/01/17 11:00:21;;;;;;;3.70;3.40;;;;;;;0.44;100.00;99217.38;6171321;28;20680;-69
2024/01/17 11:03:46;;;;;;;5.97;4.27;;;;;;;0.67;100.00;99203.25;6183611;28;20238;-70
2024/01/17 11:07:09;;;;;;;5.20;3.77;;;;;;;0.75;100.00;99195.56;6172470;28;20230;-69
2024/01/17 11:10:30;;;;;;;4.20;3.77;;;;;;;0.87;100.00;99194.63;6173923;28;20770;-68
2024/01/17 11:13:53;;;;;;;4.13;3.73;;;;;;;0.79;100.00;99211.09;6175209;28;20322;-68
2024/01/17 11:17:16;;;;;;;5.43;4.33;;;;;;;0.86;100.00;99194.72;6158233;28;20230;-68
2024/01/17 11:20:40;;;;;;;6.17;5.00;;;;;;;0.97;100.00;99203.56;6177796;28;20557;-67
2024/01/17 11:24:11;;;;;;;5.17;3.93;;;;;;;1.28;100.00;99200.25;6189099;28;20222;-67
2024/01/17 11:27:38;;;;;;;4.50;4.10;;;;;;;1.17;100.00;99192.25;6168987;28;20225;-68
2024/01/17 11:31:14;;;;;;;6.23;4.40;;;;;;;1.59;100.00;99182.75;6173726;28;20250;-67
2024/01/17 11:34:35;;;;;;;5.40;4.87;;;;;;;1.59;100.00;99180.94;6178311;28;20333;-69
2024/01/17 11:37:57;;;;;;;5.77;4.80;;;;;;;2.01;100.00;99179.31;6177574;28;20227;-67
2024/01/17 11:41:19;;;;;;;4.00;3.43;;;;;;;1.79;100.00;99176.72;6179116;28;20245;-67
2024/01/17 11:44:40;;;;;;;4.43;4.07;;;;;;;1.79;100.00;99165.22;6181799;28;20324;-70
2024/01/17 11:48:12;;;;;;;6.93;4.33;;;;;;;1.47;100.00;99165.13;6166096;28;20237;-68
2024/01/17 11:51:34;;;;;;;9.20;4.00;;;;;;;1.53;100.00;99151.38;6173009;28;20221;-68
2024/01/17 11:54:55;;;;;;;5.07;4.37;;;;;;;1.90;100.00;99141.31;6187772;28;20495;-68
2024/01/17 11:58:17;;;;;;;13.67;6.47;;;;;;;1.81;100.00;99142.06;6181483;28;20237;-70
2024/01/17 12:01:41;;;;;;;4.93;4.33;;;;;;;1.98;100.00;99136.22;6168427;28;20242;-67
2024/01/17 12:05:02;;;;;;;5.17;4.07;;;;;;;2.36;100.00;99129.41;6179748;28;20539;-68
2024/01/17 12:08:24;;;;;;;5.47;4.80;;;;;;;3.44;100.00;99115.66;6179942;28;20229;-68
2024/01/17 12:11:49;;;;;;;12.33;5.87;;;;;;;4.07;100.00;99109.88;6180856;28;20265;-67
2024/01/17 12:15:12;;;;;;;8.53;5.30;;;;;;;4.62;100.00;99099.50;6184862;28;20238;-68
2024/01/17 12:18:35;;;;;;;6.07;4.87;;;;;;;4.05;100.00;99089.66;6171505;28;20234;-70
2024/01/17 12:21:56;;;;;;;5.70;5.10;;;;;;;3.17;100.00;99081.59;6171440;28;20612;-68
2024/01/17 12:25:17;;;;;;;9.07;6.73;;;;;;;2.28;100.00;99078.72;6159707;28;20253;-68
2024/01/17 12:28:38;;;;;;;5.70;5.13;;;;;;;1.86;100.00;99082.25;6176095;28;20237;-68
2024/01/17 12:32:01;;;;;;;4.67;4.17;;;;;;;2.33;100.00;99070.34;6163165;28;20233;-68
2024/01/17 12:35:23;;;;;;;9.40;4.73;;;;;;;2.44;100.00;99065.81;6167790;28;20230;-69
2024/01/17 12:38:44;;;;;;;7.23;4.07;;;;;;;2.41;100.00;99071.41;6172824;28;20376;-67
2024/01/17 12:42:05;;;;;;;8.67;5.00;;;;;;;2.45;100.00;99058.69;6167702;28;20230;-69
2024/01/17 12:45:26;;;;;;;7.80;5.13;;;;;;;1.79;100.00;99057.19;6164967;28;20237;-69
2024/01/17 12:48:58;;;;;;;5.63;5.10;;;;;;;1.58;100.00;99057.13;6184750;28;20234;-69
2024/01/17 12:52:19;;;;;;;13.83;5.00;;;;;;;1.51;100.00;99061.25;6178506;28;20234;-67
2024/01/17 12:55:41;;;;;;;5.30;3.80;;;;;;;1.40;100.00;99055.09;6169165;28;20621;-68
2024/01/17 12:59:02;;;;;;;7.83;5.67;;;;;;;1.56;100.00;99051.06;6163956;28;20589;-69
2024/01/17 13:02:24;;;;;;;7.47;5.00;;;;;;;1.95;100.00;99049.63;6160735;28;20246;-67
2024/01/17 13:05:47;;;;;;;7.87;6.17;;;;;;;1.76;100.00;99045.94;6168585;28;20237;-67
2024/01/17 13:09:16;;;;;;;4.87;4.57;;;;;;;1.86;100.00;99041.56;6181140;28;20309;-66
2024/01/17 13:12:37;;;;;;;6.07;4.27;;;;;;;1.53;100.00;99045.19;6173401;28;20238;-69
2024/01/17 13:15:59;;;;;;;7.03;4.13;;;;;;;1.37;100.00;99048.25;6176466;28;20221;-68
2024/01/17 13:19:20;;;;;;;6.53;4.50;;;;;;;1.18;100.00;99047.19;6178574;28;20241;-66
2024/01/17 13:22:42;;;;;;;6.37;4.77;;;;;;;0.97;100.00;99044.44;6165936;28;20241;-69
2024/01/17 13:26:04;;;;;;;14.37;6.13;;;;;;;1.02;100.00;99034.31;6176684;28;20619;-67
2024/01/17 13:29:24;;;;;;;8.27;5.90;;;;;;;1.09;100.00;99037.28;6178123;28;20332;-66
2024/01/17 13:32:46;;;;;;;4.17;3.77;;;;;;;1.10;100.00;99033.69;6152643;28;20234;-67
2024/01/17 13:36:07;;;;;;;5.77;5.10;;;;;;;1.22;100.00;99030.91;6175045;28;20229;-67
2024/01/17 13:39:29;;;;;;;5.63;5.00;;;;;;;0.98;100.00;99032.03;6186530;28;20232;-68
2024/01/17 13:42:50;;;;;;;5.77;5.27;;;;;;;0.96;100.00;99024.16;6181804;28;20238;-67
2024/01/17 13:46:11;;;;;;;6.47;5.57;;;;;;;1.02;100.00;99022.84;6177020;28;20230;-68
2024/01/17 13:49:35;;;;;;;11.87;5.43;;;;;;;0.98;100.00;99013.44;6179755;28;20226;-69
2024/01/17 13:52:59;;;;;;;5.47;4.53;;;;;;;1.14;100.00;99019.22;6177522;28;20511;-67
2024/01/17 13:56:21;;;;;;;8.30;5.60;;;;;;;1.08;100.00;99020.56;6175178;28;20234;-66
2024/01/17 13:59:42;;;;;;;5.23;4.03;;;;;;;1.29;100.00;99023.28;6183296;28;20272;-68
2024/01/17 14:03:04;;;;;;;10.77;4.77;;;;;;;1.35;100.00;99022.78;6176284;28;20234;-67
2024/01/17 14:06:26;;;;;;;7.60;5.50;;;;;;;1.56;100.00;99011.25;6170464;28;20233;-70
2024/01/17 14:09:47;;;;;;;5.57;4.87;;;;;;;1.72;100.00;99012.66;6185958;28;20250;-69
2024/01/17 14:13:09;;;;;;;12.57;4.97;;;;;;;1.38;100.00;99007.47;6186286;28;20234;-68
2024/01/17 14:16:30;;;;;;;8.10;4.33;;;;;;;0.96;100.00;99012.72;6179455;28;20241;-68
2024/01/17 14:19:54;;;;;;;6.37;5.10;;;;;;;0.78;100.00;99012.38;6180681;28;20229;-68
2024/01/17 14:23:18;;;;;;;10.27;5.20;;;;;;;0.88;100.00;99009.84;6184728;28;20246;-68
2024/01/17 14:26:39;;;;;;;6.30;5.80;;;;;;;0.97;100.00;99007.28;6178920;28;20238;-66
2024/01/17 14:30:03;;;;;;;7.23;3.63;;;;;;;0.94;100.00;98999.56;6174003;28;20246;-66
2024/01/17 14:33:24;;;;;;;4.43;3.87;;;;;;;0.74;100.00;98995.88;6176477;28;20267;-67
2024/01/17 14:36:45;;;;;;;8.60;4.60;;;;;;;0.80;100.00;98991.88;6178093;28;20731;-68
2024/01/17 14:40:09;;;;;;;7.20;5.17;;;;;;;0.81;100.00;98990.94;6175423;28;20265;-68
2024/01/17 14:43:30;;;;;;;8.97;4.40;;;;;;;0.80;100.00;98990.06;6183400;28;20928;-69
2024/01/17 14:46:52;;;;;;;10.57;4.57;;;;;;;0.66;100.00;98989.47;6168493;28;20229;-69
2024/01/17 14:50:14;;;;;;;8.67;5.87;;;;;;;0.60;100.00;98977.56;6183553;28;20287;-68
2024/01/17 14:53:35;;;;;;;5.93;4.17;;;;;;;0.70;100.00;98969.72;6181290;28;20249;-68
2024/01/17 14:56:56;;;;;;;5.63;4.87;;;;;;;0.70;100.00;98969.72;6175745;28;20226;-69
2024/01/17 15:00:18;;;;;;;4.93;4.43;;;;;;;0.46;100.00;98963.69;6173868;28;20241;-69
2024/01/17 15:03:41;;;;;;;11.50;6.70;;;;;;;0.58;100.00;98963.59;6179906;28;20233;-66
2024/01/17 15:07:03;;;;;;;9.57;5.43;;;;;;;0.65;100.00;98955.97;6139705;28;20239;-68
2024/01/17 15:10:24;;;;;;;7.47;5.13;;;;;;;0.57;100.00;98956.59;6178286;28;20320;-67
2024/01/17 15:13:45;;;;;;;6.47;5.70;;;;;;;0.46;100.00;98953.09;6186710;28;20226;-68
2024/01/17 15:17:06;;;;;;;6.30;4.53;;;;;;;0.49;100.00;98939.59;6176257;28;20504;-66
2024/01/17 15:20:28;;;;;;;8.00;4.50;;;;;;;0.53;100.00;98939.25;6177916;28;20226;-69
2024/01/17 15:23:49;;;;;;;7.60;5.63;;;;;;;0.52;100.00;98942.84;6183501;28;20238;-68
2024/01/17 15:27:10;;;;;;;7.40;5.73;;;;;;;0.51;100.00;98933.22;6179500;28;20225;-66
2024/01/17 15:30:31;;;;;;;7.03;4.43;;;;;;;0.58;100.00;98934.44;6168639;28;20256;-68
2024/01/17 15:33:52;;;;;;;9.77;5.47;;;;;;;0.48;100.00;98932.63;6185199;28;20603;-68
2024/01/17 15:37:14;;;;;;;5.40;4.20;;;;;;;0.53;100.00;98946.34;6182053;28;20230;-68
2024/01/17 15:40:43;;;;;;;7.70;6.27;;;;;;;0.55;100.00;98937.31;6167028;28;20225;-68